This is the latest recevied weather packets stored in our database for station/object IW1RID-3. If no packets are shown the sender has not sent any weather packets the latest 10 day(s).
| Time | Temp. | Humidity | Pressure | Rain* | Wind** | Luminosity | Snow |
|---|---|---|---|---|---|---|---|
| 1778084709 | 22.78° C | 51% | 1066.3 hPa | - | - | - | - |
| 1778083503 | 21.67° C | 53% | 1066.5 hPa | - | - | - | - |
| 1778082297 | 22.78° C | 50% | 1066.5 hPa | - | - | - | - |
| 1778081092 | 22.78° C | 49% | 1066.5 hPa | - | - | - | - |
| 1778079886 | 23.33° C | 49% | 1066.8 hPa | - | - | - | - |
| 1778078681 | 23.33° C | 51% | 1067 hPa | - | - | - | - |
| 1778077475 | 21.67° C | 56% | 1067.4 hPa | - | - | - | - |
| 1778076269 | 20.56° C | 61% | 1066.9 hPa | - | - | - | - |
| 1778075064 | 21.11° C | 60% | 1067.6 hPa | - | - | - | - |
| 1778073857 | 20.56° C | 63% | 1067.8 hPa | - | - | - | - |
| 1778070237 | 20.56° C | 64% | 1067.4 hPa | - | - | - | - |
| 1778069031 | 18.89° C | 66% | 1067.4 hPa | - | - | - | - |
| 1778067822 | 18.89° C | 68% | 1067.5 hPa | - | - | - | - |
| 1778066617 | 18.89° C | 68% | 1067.3 hPa | - | - | - | - |
| 1778065411 | 18.89° C | 69% | 1067.3 hPa | - | - | - | - |
| 1778064206 | 18.33° C | 66% | 1067.5 hPa | - | - | - | - |
| 1778063000 | 18.33° C | 70% | 1067.5 hPa | - | - | - | - |
| 1778061796 | 18.33° C | 68% | 1067.5 hPa | - | - | - | - |
| 1778060590 | 18.89° C | 68% | 1067.2 hPa | - | - | - | - |
| 1778059384 | 18.33° C | 68% | 1067.2 hPa | - | - | - | - |
| 1778058178 | 18.33° C | 71% | 1067 hPa | - | - | - | - |
| 1778056972 | 17.22° C | 72% | 1066.8 hPa | - | - | - | - |
| 1778055767 | 16.67° C | 79% | 1066.6 hPa | - | - | - | - |
| 1778054561 | 16.11° C | 80% | 1066.6 hPa | - | - | - | - |
| 1778053357 | 16.11° C | 79% | 1066.6 hPa | - | - | - | - |
* Rain since midnight (hover to see other rain measurements)
** Current wind speed in m/s (hover to see current wind gust speed)